Time;durP1;ratioP1;P1;durP2;ratioP2;P2;SDS_P1;SDS_P2;PMS_P1;PMS_P2;Temp;Humidity;BMP_temperature;BMP_pressure;BME280_temperature;BME280_humidity;BME280_pressure;Samples;Min_cycle;Max_cycle;Signal;HPM_P1;HPM_P2
2022/09/09 00:00:34;;;;;;;;;;;22.10;90.20;;;;;;4918698;29;19953;-66
2022/09/09 00:02:59;;;;;;;;;;;22.10;90.10;;;;;;4918765;29;19915;-66
2022/09/09 00:05:31;;;;;;;;;;;22.10;90.10;;;;;;4918668;29;19915;-67
2022/09/09 00:07:59;;;;;;;;;;;22.10;90.10;;;;;;4918762;29;20378;-66
2022/09/09 00:10:27;;;;;;;;;;;22.10;90.00;;;;;;4918137;29;19931;-66
2022/09/09 00:12:59;;;;;;;;;;;22.20;89.60;;;;;;4918715;29;19919;-66
2022/09/09 00:15:27;;;;;;;;;;;22.20;89.20;;;;;;4918576;29;19919;-66
2022/09/09 00:17:57;;;;;;;;;;;22.20;89.30;;;;;;4918829;29;19919;-66
2022/09/09 00:20:38;;;;;;;;;;;22.20;88.50;;;;;;4918415;29;19955;-66
2022/09/09 00:23:06;;;;;;;;;;;22.20;88.30;;;;;;4908657;29;19919;-66
2022/09/09 00:25:36;;;;;;;;;;;22.20;88.40;;;;;;4918409;29;19918;-66
2022/09/09 00:28:02;;;;;;;;;;;22.20;88.30;;;;;;4918088;29;19922;-67
2022/09/09 00:30:31;;;;;;;;;;;22.20;88.10;;;;;;4918372;29;19912;-65
2022/09/09 00:33:02;;;;;;;;;;;22.20;87.90;;;;;;4918327;29;19911;-67
2022/09/09 00:35:36;;;;;;;;;;;22.20;88.10;;;;;;4917396;29;20362;-66
2022/09/09 00:38:06;;;;;;;;;;;22.10;88.30;;;;;;4918284;29;19915;-66
2022/09/09 00:40:38;;;;;;;;;;;22.10;88.40;;;;;;4918073;29;19915;-66
2022/09/09 00:43:19;;;;;;;;;;;22.10;88.30;;;;;;4918186;29;20063;-66
2022/09/09 00:46:08;;;;;;;;;;;22.10;88.00;;;;;;4918655;29;19922;-66
2022/09/09 00:48:42;;;;;;;;;;;22.20;87.90;;;;;;4918160;29;19926;-66
2022/09/09 00:51:15;;;;;;;;;;;22.20;87.40;;;;;;4918241;29;20264;-66
2022/09/09 00:53:41;;;;;;;;;;;22.20;87.30;;;;;;4904548;29;20291;-64
2022/09/09 00:56:19;;;;;;;;;;;22.20;87.10;;;;;;4917837;29;19951;-67
2022/09/09 00:58:54;;;;;;;;;;;22.40;86.50;;;;;;4917797;29;20449;-67
2022/09/09 01:01:19;;;;;;;;;;;22.40;86.30;;;;;;4917800;29;19915;-66
2022/09/09 01:03:49;;;;;;;;;;;22.40;86.30;;;;;;4917510;29;20041;-66
2022/09/09 01:06:14;;;;;;;;;;;22.40;86.20;;;;;;4917643;29;19919;-66
2022/09/09 01:08:52;;;;;;;;;;;22.40;86.60;;;;;;4917453;29;19926;-66
2022/09/09 01:11:38;;;;;;;;;;;22.20;86.90;;;;;;4917757;29;19978;-67
2022/09/09 01:14:11;;;;;;;;;;;22.30;86.90;;;;;;4935364;29;19915;-67
2022/09/09 01:16:37;;;;;;;;;;;22.30;86.50;;;;;;4917642;29;19919;-66
2022/09/09 01:19:07;;;;;;;;;;;22.30;86.80;;;;;;4917287;29;19915;-66
2022/09/09 01:21:54;;;;;;;;;;;22.30;86.70;;;;;;4917342;29;20371;-66
2022/09/09 01:24:19;;;;;;;;;;;22.20;86.90;;;;;;4905925;29;19911;-66
2022/09/09 01:26:46;;;;;;;;;;;22.20;86.80;;;;;;4917208;29;20077;-66
2022/09/09 01:29:13;;;;;;;;;;;22.20;86.90;;;;;;4917337;29;19921;-66
2022/09/09 01:31:41;;;;;;;;;;;22.20;86.80;;;;;;4917089;29;19915;-67
2022/09/09 01:34:10;;;;;;;;;;;22.20;86.90;;;;;;4917084;29;20278;-65
2022/09/09 01:36:42;;;;;;;;;;;22.10;87.80;;;;;;4917027;29;19975;-65
2022/09/09 01:39:08;;;;;;;;;;;22.10;87.40;;;;;;4916810;29;20289;-65
2022/09/09 01:41:33;;;;;;;;;;;22.10;87.80;;;;;;4917018;29;19915;-66
2022/09/09 01:43:59;;;;;;;;;;;22.10;87.60;;;;;;4916978;29;19962;-65
2022/09/09 01:46:25;;;;;;;;;;;22.10;88.00;;;;;;4916618;29;19921;-65
2022/09/09 01:48:52;;;;;;;;;;;22.10;88.20;;;;;;4916760;29;19955;-66
2022/09/09 01:51:18;;;;;;;;;;;22.10;88.50;;;;;;4916594;29;19916;-66
2022/09/09 01:53:44;;;;;;;;;;;22.10;88.70;;;;;;4905887;29;19922;-66
2022/09/09 01:56:32;;;;;;;;;;;22.10;88.90;;;;;;4916694;29;19923;-66
2022/09/09 01:58:57;;;;;;;;;;;22.20;89.30;;;;;;4916483;29;19916;-65
2022/09/09 02:01:47;;;;;;;;;;;22.20;89.70;;;;;;4916695;29;19911;-65
2022/09/09 02:04:31;;;;;;;;;;;22.20;89.90;;;;;;4916585;29;19915;-65
2022/09/09 02:06:57;;;;;;;;;;;22.20;89.90;;;;;;4916868;29;20275;-65
2022/09/09 02:09:23;;;;;;;;;;;22.20;89.60;;;;;;4916602;29;19927;-66
2022/09/09 02:11:51;;;;;;;;;;;22.20;89.80;;;;;;4916738;28;19991;-66
2022/09/09 02:14:19;;;;;;;;;;;22.20;89.80;;;;;;4916639;29;19911;-66
2022/09/09 02:16:52;;;;;;;;;;;22.10;90.10;;;;;;4916244;29;20367;-66
2022/09/09 02:19:25;;;;;;;;;;;22.10;90.00;;;;;;4916483;29;19911;-66
2022/09/09 02:21:53;;;;;;;;;;;22.10;90.00;;;;;;4916747;29;19912;-66
2022/09/09 02:24:18;;;;;;;;;;;22.10;89.00;;;;;;4902554;29;19915;-65
2022/09/09 02:26:46;;;;;;;;;;;22.10;88.50;;;;;;4927742;29;19935;-65
2022/09/09 02:29:14;;;;;;;;;;;22.10;88.00;;;;;;4912892;29;19992;-66
2022/09/09 02:31:41;;;;;;;;;;;22.10;88.10;;;;;;4916448;29;20357;-66
2022/09/09 02:34:10;;;;;;;;;;;22.00;87.40;;;;;;4916345;29;20282;-66
2022/09/09 02:36:36;;;;;;;;;;;22.00;86.60;;;;;;4916360;29;19929;-65
2022/09/09 02:39:03;;;;;;;;;;;22.10;85.90;;;;;;4916597;29;19911;-66
2022/09/09 02:41:33;;;;;;;;;;;22.10;85.20;;;;;;4915955;29;19915;-66
2022/09/09 02:43:59;;;;;;;;;;;22.10;84.80;;;;;;4916107;29;20399;-66
2022/09/09 02:46:28;;;;;;;;;;;22.10;84.80;;;;;;4916157;29;19923;-65
2022/09/09 02:49:08;;;;;;;;;;;22.10;84.60;;;;;;4927298;29;20002;-66
2022/09/09 02:51:51;;;;;;;;;;;22.10;84.80;;;;;;4914735;29;20437;-65
2022/09/09 02:54:21;;;;;;;;;;;22.10;84.80;;;;;;4904215;29;19915;-66
2022/09/09 02:56:54;;;;;;;;;;;22.10;84.50;;;;;;4915924;29;19919;-65
2022/09/09 02:59:20;;;;;;;;;;;22.20;84.30;;;;;;4918058;29;20653;-65
2022/09/09 03:01:46;;;;;;;;;;;22.10;84.50;;;;;;4920177;29;20414;-65
2022/09/09 03:04:12;;;;;;;;;;;22.10;84.10;;;;;;4933214;29;20363;-65
2022/09/09 03:06:38;;;;;;;;;;;22.10;84.10;;;;;;4931559;29;19922;-65
2022/09/09 03:09:04;;;;;;;;;;;22.10;84.00;;;;;;4919780;29;19927;-65
2022/09/09 03:11:30;;;;;;;;;;;22.10;83.70;;;;;;4919551;29;19915;-65
2022/09/09 03:13:58;;;;;;;;;;;22.10;83.90;;;;;;4919598;29;19915;-65
2022/09/09 03:16:23;;;;;;;;;;;22.00;84.00;;;;;;4919484;29;20311;-65
2022/09/09 03:18:49;;;;;;;;;;;22.00;84.40;;;;;;4919282;29;19922;-65
2022/09/09 03:21:15;;;;;;;;;;;21.90;84.80;;;;;;4919323;29;20272;-65
2022/09/09 03:23:40;;;;;;;;;;;21.80;85.40;;;;;;4902787;29;20330;-65
2022/09/09 03:26:06;;;;;;;;;;;21.80;85.50;;;;;;4919325;29;20368;-65
2022/09/09 03:28:32;;;;;;;;;;;21.80;85.80;;;;;;4919307;29;19915;-65
2022/09/09 03:30:58;;;;;;;;;;;21.80;85.60;;;;;;4919126;29;20304;-65
2022/09/09 03:33:24;;;;;;;;;;;21.70;86.00;;;;;;4919376;29;19927;-65
2022/09/09 03:35:51;;;;;;;;;;;21.60;86.20;;;;;;4919157;29;19916;-66
2022/09/09 03:38:16;;;;;;;;;;;21.60;86.60;;;;;;4919073;29;19915;-65
2022/09/09 03:40:49;;;;;;;;;;;21.60;86.00;;;;;;4925111;29;19915;-65
2022/09/09 03:43:16;;;;;;;;;;;21.70;85.60;;;;;;4926776;29;20105;-65
2022/09/09 03:45:46;;;;;;;;;;;21.70;85.70;;;;;;4925614;29;19943;-65
2022/09/09 03:48:11;;;;;;;;;;;21.60;86.20;;;;;;4925148;29;19915;-65
2022/09/09 03:50:37;;;;;;;;;;;21.70;86.20;;;;;;4924345;29;20355;-66
2022/09/09 03:53:02;;;;;;;;;;;21.60;86.20;;;;;;4913155;29;19919;-65
2022/09/09 03:55:28;;;;;;;;;;;21.60;86.30;;;;;;4923904;29;19970;-65
2022/09/09 03:57:53;;;;;;;;;;;21.60;86.70;;;;;;4924113;29;19919;-65
2022/09/09 04:00:19;;;;;;;;;;;21.60;86.50;;;;;;4920238;29;19966;-68
2022/09/09 04:02:45;;;;;;;;;;;21.60;86.60;;;;;;4919051;29;20282;-66
2022/09/09 04:05:11;;;;;;;;;;;21.50;87.50;;;;;;4918832;29;19915;-65
2022/09/09 04:07:36;;;;;;;;;;;21.50;86.80;;;;;;4918896;29;19918;-65
2022/09/09 04:10:02;;;;;;;;;;;21.50;86.70;;;;;;4917020;29;19923;-65
2022/09/09 04:12:28;;;;;;;;;;;21.60;86.20;;;;;;4918714;29;20283;-65
2022/09/09 04:14:53;;;;;;;;;;;21.50;86.20;;;;;;4918589;29;19911;-66
2022/09/09 04:17:19;;;;;;;;;;;21.60;85.90;;;;;;4918297;29;19925;-63
2022/09/09 04:19:44;;;;;;;;;;;21.60;86.10;;;;;;4918365;29;19922;-65
2022/09/09 04:22:10;;;;;;;;;;;21.60;86.40;;;;;;4914651;29;19962;-66
2022/09/09 04:24:36;;;;;;;;;;;21.60;86.40;;;;;;4915066;29;19918;-66
2022/09/09 04:27:02;;;;;;;;;;;21.60;85.90;;;;;;4918341;29;19919;-65
2022/09/09 04:29:27;;;;;;;;;;;21.70;85.50;;;;;;4918181;29;19918;-66
2022/09/09 04:31:53;;;;;;;;;;;21.70;85.60;;;;;;4918168;29;19911;-66
2022/09/09 04:34:18;;;;;;;;;;;21.80;85.00;;;;;;4918275;29;19915;-66
2022/09/09 04:36:44;;;;;;;;;;;21.70;84.70;;;;;;4918331;29;19923;-65
2022/09/09 04:39:09;;;;;;;;;;;21.80;85.00;;;;;;4918002;29;19911;-64
2022/09/09 04:41:35;;;;;;;;;;;21.70;84.60;;;;;;4917999;29;20014;-63
2022/09/09 04:44:01;;;;;;;;;;;21.70;84.80;;;;;;4918188;29;20363;-65
2022/09/09 04:46:26;;;;;;;;;;;21.70;85.10;;;;;;4917955;29;19966;-64
2022/09/09 04:48:52;;;;;;;;;;;21.80;84.80;;;;;;4918051;29;20006;-65
2022/09/09 04:51:18;;;;;;;;;;;21.70;84.10;;;;;;4917746;29;19978;-64
2022/09/09 04:53:44;;;;;;;;;;;21.80;83.90;;;;;;4907554;29;19911;-64
2022/09/09 04:56:11;;;;;;;;;;;21.80;83.90;;;;;;4917913;29;19954;-66
2022/09/09 04:58:38;;;;;;;;;;;21.80;83.80;;;;;;4917796;29;19922;-66
2022/09/09 05:01:04;;;;;;;;;;;21.90;84.30;;;;;;4917687;29;19912;-63
2022/09/09 05:03:30;;;;;;;;;;;21.80;83.40;;;;;;4917688;29;19911;-65
2022/09/09 05:06:03;;;;;;;;;;;21.90;82.90;;;;;;4917831;29;19911;-65
2022/09/09 05:08:29;;;;;;;;;;;21.90;83.20;;;;;;4917270;29;19919;-65
2022/09/09 05:10:55;;;;;;;;;;;21.90;82.90;;;;;;4917485;29;19929;-65
2022/09/09 05:13:21;;;;;;;;;;;21.90;82.30;;;;;;4917513;29;19972;-65
2022/09/09 05:15:53;;;;;;;;;;;21.90;82.60;;;;;;4917114;29;19919;-65
2022/09/09 05:18:18;;;;;;;;;;;21.80;82.90;;;;;;4917382;29;20001;-65
2022/09/09 05:20:44;;;;;;;;;;;21.80;83.20;;;;;;4917427;29;20005;-65
2022/09/09 05:23:11;;;;;;;;;;;21.80;83.30;;;;;;4902201;29;19954;-65
2022/09/09 05:25:37;;;;;;;;;;;21.80;83.00;;;;;;4916979;29;19916;-66
2022/09/09 05:28:03;;;;;;;;;;;21.90;82.80;;;;;;4917454;29;19938;-65
2022/09/09 05:30:28;;;;;;;;;;;22.00;82.50;;;;;;4917204;29;19911;-65
2022/09/09 05:32:57;;;;;;;;;;;22.00;82.00;;;;;;4917264;29;19982;-65
2022/09/09 05:35:22;;;;;;;;;;;21.90;82.30;;;;;;4917176;29;20407;-65
2022/09/09 05:37:48;;;;;;;;;;;21.90;82.70;;;;;;4916897;29;19925;-65
2022/09/09 05:40:14;;;;;;;;;;;21.90;82.80;;;;;;4917104;29;19915;-66
2022/09/09 05:42:40;;;;;;;;;;;21.90;82.00;;;;;;4916640;29;19919;-66
2022/09/09 05:45:07;;;;;;;;;;;21.90;82.60;;;;;;4917008;29;19930;-65
2022/09/09 05:47:33;;;;;;;;;;;21.90;82.20;;;;;;4916890;29;20393;-65
2022/09/09 05:49:59;;;;;;;;;;;21.90;81.70;;;;;;4916756;29;20006;-63
2022/09/09 05:52:26;;;;;;;;;;;21.90;81.70;;;;;;4900420;29;19918;-64
2022/09/09 05:54:51;;;;;;;;;;;22.00;81.60;;;;;;4916628;29;20236;-64
2022/09/09 05:57:19;;;;;;;;;;;22.00;81.40;;;;;;4916582;29;19926;-71
2022/09/09 05:59:44;;;;;;;;;;;22.10;81.80;;;;;;4916495;29;19922;-62
2022/09/09 06:02:10;;;;;;;;;;;22.00;82.30;;;;;;4916804;29;19911;-63
2022/09/09 06:04:35;;;;;;;;;;;22.00;82.50;;;;;;4916329;29;19911;-63
2022/09/09 06:07:01;;;;;;;;;;;22.10;82.30;;;;;;4916705;29;19915;-63
2022/09/09 06:09:27;;;;;;;;;;;22.10;82.20;;;;;;4916291;29;20018;-62
2022/09/09 06:11:54;;;;;;;;;;;22.30;81.40;;;;;;4916321;29;19911;-63
2022/09/09 06:14:20;;;;;;;;;;;22.50;81.00;;;;;;4916575;29;20387;-62
2022/09/09 06:16:45;;;;;;;;;;;22.70;80.50;;;;;;4916352;29;19922;-62
2022/09/09 06:19:12;;;;;;;;;;;23.00;78.20;;;;;;4916207;29;20290;-62
2022/09/09 06:21:38;;;;;;;;;;;23.20;77.30;;;;;;4916308;29;19915;-62
2022/09/09 06:24:04;;;;;;;;;;;23.30;76.40;;;;;;4906649;29;19922;-62
2022/09/09 06:26:31;;;;;;;;;;;23.60;75.50;;;;;;4914927;29;20419;-62
2022/09/09 06:28:59;;;;;;;;;;;23.70;74.90;;;;;;4915872;29;20397;-62
2022/09/09 06:31:30;;;;;;;;;;;23.80;74.20;;;;;;4915068;29;19983;-62
2022/09/09 06:33:56;;;;;;;;;;;23.80;74.00;;;;;;4914562;29;19923;-63
2022/09/09 06:36:23;;;;;;;;;;;23.70;73.80;;;;;;4915160;29;19935;-62
2022/09/09 06:38:49;;;;;;;;;;;23.60;74.10;;;;;;4913424;29;19918;-63
2022/09/09 06:41:16;;;;;;;;;;;23.50;74.30;;;;;;4914943;29;20286;-63
2022/09/09 06:43:42;;;;;;;;;;;23.50;74.80;;;;;;4915848;29;19958;-62
2022/09/09 06:46:12;;;;;;;;;;;23.40;75.20;;;;;;4915949;29;19966;-61
2022/09/09 06:48:40;;;;;;;;;;;23.40;75.40;;;;;;4915994;29;19967;-61
2022/09/09 06:51:07;;;;;;;;;;;23.40;75.80;;;;;;4915952;29;20022;-62
2022/09/09 06:53:33;;;;;;;;;;;23.50;75.70;;;;;;4908564;29;19916;-62
2022/09/09 06:56:20;;;;;;;;;;;23.60;75.50;;;;;;4915886;29;19950;-61
2022/09/09 06:58:46;;;;;;;;;;;23.70;74.80;;;;;;4915940;29;19919;-62
2022/09/09 07:01:13;;;;;;;;;;;24.00;74.50;;;;;;4915947;29;19943;-61
2022/09/09 07:03:39;;;;;;;;;;;24.20;73.00;;;;;;4915767;29;19919;-63
2022/09/09 07:06:05;;;;;;;;;;;24.20;71.70;;;;;;4914557;29;19927;-61
2022/09/09 07:08:31;;;;;;;;;;;24.20;71.50;;;;;;4914428;29;20006;-61
2022/09/09 07:11:07;;;;;;;;;;;24.30;71.80;;;;;;4914623;29;19915;-62
2022/09/09 07:13:32;;;;;;;;;;;24.40;71.90;;;;;;4914910;29;19912;-61
2022/09/09 07:16:05;;;;;;;;;;;24.50;71.30;;;;;;4914857;29;19919;-62
2022/09/09 07:18:31;;;;;;;;;;;24.50;71.60;;;;;;4912965;29;19915;-62
2022/09/09 07:20:57;;;;;;;;;;;24.70;71.90;;;;;;4915213;29;20423;-63
2022/09/09 07:23:25;;;;;;;;;;;24.90;71.50;;;;;;4898214;29;20199;-64
2022/09/09 07:25:52;;;;;;;;;;;25.20;71.50;;;;;;4915182;29;19915;-63
2022/09/09 07:28:18;;;;;;;;;;;25.50;70.90;;;;;;4915602;29;19915;-61
2022/09/09 07:30:52;;;;;;;;;;;25.70;70.20;;;;;;4914538;29;19923;-61
2022/09/09 07:33:19;;;;;;;;;;;25.70;69.00;;;;;;4912541;29;19925;-61
2022/09/09 07:35:45;;;;;;;;;;;25.70;69.90;;;;;;4914131;29;19916;-61
2022/09/09 07:38:11;;;;;;;;;;;25.50;70.20;;;;;;4914859;29;19923;-62
2022/09/09 07:40:37;;;;;;;;;;;25.40;70.00;;;;;;4914835;29;19922;-61
2022/09/09 07:43:02;;;;;;;;;;;25.30;70.40;;;;;;4914384;29;19919;-61
2022/09/09 07:45:28;;;;;;;;;;;25.30;70.80;;;;;;4916886;29;19911;-61
2022/09/09 07:47:55;;;;;;;;;;;25.10;71.20;;;;;;4917977;29;19915;-61
2022/09/09 07:50:21;;;;;;;;;;;25.10;71.40;;;;;;4918419;29;19962;-65
2022/09/09 07:52:47;;;;;;;;;;;25.00;72.30;;;;;;4899399;29;19981;-62
2022/09/09 07:55:12;;;;;;;;;;;24.90;72.60;;;;;;4917899;29;19918;-64
2022/09/09 07:57:38;;;;;;;;;;;25.20;72.30;;;;;;4917732;29;19923;-63
2022/09/09 08:00:04;;;;;;;;;;;25.40;72.60;;;;;;4918495;29;19958;-63
2022/09/09 08:02:29;;;;;;;;;;;25.70;71.00;;;;;;4918614;29;20264;-63
2022/09/09 08:04:56;;;;;;;;;;;25.90;70.70;;;;;;4918973;29;19970;-61
2022/09/09 08:07:22;;;;;;;;;;;25.90;70.00;;;;;;4917694;29;20423;-66
2022/09/09 08:09:48;;;;;;;;;;;25.80;70.00;;;;;;4918204;29;20047;-62
2022/09/09 08:12:13;;;;;;;;;;;25.80;70.90;;;;;;4918148;29;19920;-64
2022/09/09 08:14:39;;;;;;;;;;;25.70;71.60;;;;;;4918010;29;19912;-62
2022/09/09 08:17:05;;;;;;;;;;;25.60;72.20;;;;;;4918189;29;19923;-62
2022/09/09 08:19:33;;;;;;;;;;;25.40;71.80;;;;;;4918420;29;19918;-63
2022/09/09 08:22:01;;;;;;;;;;;25.40;72.10;;;;;;4918598;29;19915;-62
2022/09/09 08:24:27;;;;;;;;;;;25.40;72.50;;;;;;4903441;29;19998;-62
2022/09/09 08:26:53;;;;;;;;;;;25.40;71.80;;;;;;4918271;29;20055;-63
2022/09/09 08:29:19;;;;;;;;;;;25.30;72.30;;;;;;4918592;28;19963;-63
2022/09/09 08:31:52;;;;;;;;;;;25.20;72.40;;;;;;4918258;29;20371;-63
2022/09/09 08:34:21;;;;;;;;;;;25.20;73.20;;;;;;4918173;29;19919;-62
2022/09/09 08:36:47;;;;;;;;;;;25.20;73.10;;;;;;4918102;29;20379;-63
2022/09/09 08:39:14;;;;;;;;;;;25.30;73.40;;;;;;4918062;29;19915;-62
2022/09/09 08:41:58;;;;;;;;;;;25.30;72.70;;;;;;4918043;29;19939;-62
2022/09/09 08:44:36;;;;;;;;;;;25.30;72.80;;;;;;4917807;29;20009;-62
2022/09/09 08:47:20;;;;;;;;;;;25.30;73.00;;;;;;4917969;29;19922;-63
2022/09/09 08:49:49;;;;;;;;;;;25.40;73.30;;;;;;4917725;29;19997;-63
2022/09/09 08:52:19;;;;;;;;;;;25.50;73.00;;;;;;4906001;29;20383;-62
2022/09/09 08:54:45;;;;;;;;;;;25.60;72.90;;;;;;4917801;29;20023;-63
2022/09/09 08:57:14;;;;;;;;;;;25.70;72.60;;;;;;4917147;29;19919;-62
2022/09/09 08:59:40;;;;;;;;;;;25.70;71.90;;;;;;4917520;29;19915;-63
2022/09/09 09:02:16;;;;;;;;;;;25.70;71.90;;;;;;4917754;29;19915;-62
2022/09/09 09:05:04;;;;;;;;;;;25.70;71.40;;;;;;4918339;29;20272;-65
2022/09/09 09:07:41;;;;;;;;;;;25.60;71.70;;;;;;4922184;28;19912;-63
2022/09/09 09:10:10;;;;;;;;;;;25.50;72.60;;;;;;4917185;29;20360;-68
2022/09/09 09:12:40;;;;;;;;;;;25.40;73.10;;;;;;4904338;29;20372;-64
2022/09/09 09:15:24;;;;;;;;;;;25.30;73.30;;;;;;4917487;29;20283;-65
2022/09/09 09:17:50;;;;;;;;;;;25.20;73.20;;;;;;4917192;29;20435;-63
2022/09/09 09:20:18;;;;;;;;;;;25.10;73.20;;;;;;4917253;29;19970;-62
2022/09/09 09:22:51;;;;;;;;;;;25.00;73.80;;;;;;4899709;29;20355;-64
2022/09/09 09:25:26;;;;;;;;;;;25.10;73.10;;;;;;4917250;29;19918;-64
2022/09/09 09:28:00;;;;;;;;;;;25.00;73.80;;;;;;4916943;29;19915;-65
2022/09/09 09:30:31;;;;;;;;;;;24.90;75.70;;;;;;4917129;29;20286;-62
2022/09/09 09:32:59;;;;;;;;;;;24.90;76.10;;;;;;4916669;29;19915;-66
2022/09/09 09:35:25;;;;;;;;;;;24.80;77.20;;;;;;4917103;29;20009;-68
2022/09/09 09:37:50;;;;;;;;;;;24.50;80.20;;;;;;4916785;29;19998;-72
2022/09/09 09:40:20;;;;;;;;;;;24.40;81.50;;;;;;4916889;29;19922;-66
2022/09/09 09:42:51;;;;;;;;;;;24.00;82.90;;;;;;4916208;28;20492;-67
2022/09/09 09:45:36;;;;;;;;;;;23.00;79.30;;;;;;4913363;29;20032;-66
2022/09/09 09:48:08;;;;;;;;;;;22.50;81.90;;;;;;4911937;29;19919;-70
2022/09/09 09:50:34;;;;;;;;;;;20.90;82.90;;;;;;4915553;29;20363;-63
2022/09/09 09:53:04;;;;;;;;;;;20.10;88.40;;;;;;4903180;29;19916;-63
2022/09/09 09:55:30;;;;;;;;;;;19.60;90.50;;;;;;4916646;29;20355;-65
2022/09/09 09:58:06;;;;;;;;;;;19.80;91.80;;;;;;4916638;29;20010;-64
2022/09/09 10:00:32;;;;;;;;;;;20.10;90.70;;;;;;4916734;29;19911;-63
2022/09/09 10:02:59;;;;;;;;;;;20.20;91.70;;;;;;4916527;29;19915;-65
2022/09/09 10:05:26;;;;;;;;;;;20.60;90.60;;;;;;4916658;29;20323;-64
2022/09/09 10:08:05;;;;;;;;;;;20.40;89.20;;;;;;4916713;29;19911;-63
2022/09/09 10:10:39;;;;;;;;;;;20.40;89.40;;;;;;4916157;29;20044;-63
2022/09/09 10:13:10;;;;;;;;;;;20.10;90.70;;;;;;4916637;29;19926;-65
2022/09/09 10:15:42;;;;;;;;;;;20.10;90.80;;;;;;4916205;29;19931;-62
2022/09/09 10:18:22;;;;;;;;;;;20.20;90.60;;;;;;4915581;29;19937;-67
2022/09/09 10:21:05;;;;;;;;;;;20.20;91.10;;;;;;4915300;29;19946;-68
2022/09/09 10:23:53;;;;;;;;;;;20.40;90.80;;;;;;4896473;29;19926;-65
2022/09/09 10:26:37;;;;;;;;;;;20.40;90.20;;;;;;4902122;29;19926;-65
2022/09/09 10:29:16;;;;;;;;;;;20.90;89.30;;;;;;4915798;29;19919;-66
2022/09/09 10:32:00;;;;;;;;;;;21.10;88.60;;;;;;4912923;29;19939;-74
2022/09/09 10:34:25;;;;;;;;;;;21.20;88.60;;;;;;4914990;29;20009;-68
2022/09/09 10:36:51;;;;;;;;;;;21.00;89.10;;;;;;4914952;29;20320;-65
2022/09/09 10:39:26;;;;;;;;;;;21.20;89.50;;;;;;4914993;29;19911;-65
2022/09/09 10:41:55;;;;;;;;;;;21.30;86.70;;;;;;4914955;29;19911;-64
2022/09/09 10:44:30;;;;;;;;;;;21.50;87.20;;;;;;4915254;29;19915;-65
2022/09/09 10:47:07;;;;;;;;;;;21.50;88.30;;;;;;4914758;29;20391;-66
2022/09/09 10:49:33;;;;;;;;;;;21.70;87.70;;;;;;4915061;29;19911;-65
2022/09/09 10:52:10;;;;;;;;;;;21.80;87.80;;;;;;4915288;29;19961;-68
2022/09/09 10:54:39;;;;;;;;;;;21.80;87.30;;;;;;4907364;29;20367;-68
2022/09/09 10:57:16;;;;;;;;;;;21.70;88.30;;;;;;4914840;29;19930;-68
2022/09/09 10:59:44;;;;;;;;;;;21.80;88.60;;;;;;4914771;29;19919;-69
2022/09/09 11:02:19;;;;;;;;;;;21.90;88.90;;;;;;4914672;29;20280;-66
2022/09/09 11:04:57;;;;;;;;;;;22.00;87.60;;;;;;4915062;29;19911;-67
2022/09/09 11:07:30;;;;;;;;;;;22.00;88.60;;;;;;4914542;29;20423;-71
2022/09/09 11:10:00;;;;;;;;;;;22.40;88.80;;;;;;4914964;29;19931;-72
2022/09/09 11:12:27;;;;;;;;;;;22.60;86.80;;;;;;4914901;29;20454;-75
2022/09/09 11:14:59;;;;;;;;;;;22.70;85.50;;;;;;4914775;29;20380;-70
2022/09/09 11:17:31;;;;;;;;;;;22.90;86.30;;;;;;4914654;29;19919;-74
2022/09/09 11:19:57;;;;;;;;;;;23.00;85.00;;;;;;4916752;29;19911;-78
2022/09/09 11:22:25;;;;;;;;;;;23.10;84.20;;;;;;4905847;29;19918;-72
2022/09/09 11:24:51;;;;;;;;;;;23.30;83.50;;;;;;4918643;29;19915;-71
2022/09/09 11:27:35;;;;;;;;;;;23.20;82.50;;;;;;4917665;29;19915;-70
2022/09/09 11:30:04;;;;;;;;;;;23.20;82.70;;;;;;4918577;29;19911;-69
2022/09/09 11:32:44;;;;;;;;;;;23.20;82.40;;;;;;4918098;29;19911;-72
2022/09/09 11:35:19;;;;;;;;;;;23.20;83.00;;;;;;4920448;29;20027;-68
2022/09/09 11:38:17;;;;;;;;;;;23.30;83.60;;;;;;4917474;29;20363;-68
2022/09/09 11:40:43;;;;;;;;;;;23.30;81.70;;;;;;4916190;29;19922;-68
2022/09/09 11:43:12;;;;;;;;;;;23.40;83.90;;;;;;4920278;29;20030;-69
2022/09/09 11:45:39;;;;;;;;;;;23.70;82.00;;;;;;4917836;29;20450;-69
2022/09/09 11:48:05;;;;;;;;;;;23.80;81.50;;;;;;4920749;29;19963;-68
2022/09/09 11:50:36;;;;;;;;;;;23.70;81.70;;;;;;4917998;29;19915;-68
2022/09/09 11:53:15;;;;;;;;;;;23.60;81.60;;;;;;4903238;29;20030;-67
2022/09/09 11:55:41;;;;;;;;;;;23.60;80.90;;;;;;4917931;29;19911;-69
2022/09/09 11:58:09;;;;;;;;;;;23.50;81.50;;;;;;4917597;29;20271;-66
2022/09/09 12:00:40;;;;;;;;;;;23.50;81.60;;;;;;4919840;29;19918;-66
2022/09/09 12:03:06;;;;;;;;;;;23.40;81.30;;;;;;4917797;29;20295;-68
2022/09/09 12:05:51;;;;;;;;;;;23.30;80.20;;;;;;4922493;29;19918;-65
2022/09/09 12:08:22;;;;;;;;;;;23.40;81.80;;;;;;4916376;29;19958;-63
2022/09/09 12:10:59;;;;;;;;;;;23.60;81.20;;;;;;4915225;29;19923;-64
2022/09/09 12:13:26;;;;;;;;;;;23.80;81.80;;;;;;4916637;29;19998;-64
2022/09/09 12:15:53;;;;;;;;;;;23.90;81.30;;;;;;4917494;29;19919;-65
2022/09/09 12:18:44;;;;;;;;;;;24.10;81.90;;;;;;4917904;29;19965;-69
2022/09/09 12:21:28;;;;;;;;;;;24.20;79.40;;;;;;4910917;29;19998;-68
2022/09/09 12:23:56;;;;;;;;;;;24.50;81.00;;;;;;4909538;29;20006;-71
2022/09/09 12:26:27;;;;;;;;;;;24.70;77.90;;;;;;4917203;29;19942;-66
2022/09/09 12:28:57;;;;;;;;;;;24.80;78.20;;;;;;4917282;29;19914;-66
2022/09/09 12:31:30;;;;;;;;;;;24.80;77.30;;;;;;4918546;29;19938;-68
2022/09/09 12:34:02;;;;;;;;;;;24.90;75.80;;;;;;4920792;29;19915;-67
2022/09/09 12:36:30;;;;;;;;;;;24.90;77.00;;;;;;4915366;29;19919;-66
2022/09/09 12:38:59;;;;;;;;;;;24.80;76.50;;;;;;4918905;29;19939;-67
2022/09/09 12:41:26;;;;;;;;;;;24.80;76.80;;;;;;4916724;29;19911;-66
2022/09/09 12:44:03;;;;;;;;;;;24.90;77.60;;;;;;4919186;29;19937;-66
2022/09/09 12:46:42;;;;;;;;;;;25.00;75.70;;;;;;4921094;29;19918;-66
2022/09/09 12:49:41;;;;;;;;;;;25.10;77.60;;;;;;4924583;29;20259;-66
2022/09/09 12:52:09;;;;;;;;;;;25.00;74.70;;;;;;4900355;29;19958;-66
2022/09/09 12:54:36;;;;;;;;;;;24.90;76.80;;;;;;4908683;29;20319;-66
2022/09/09 12:57:02;;;;;;;;;;;24.90;76.40;;;;;;4916781;29;19925;-65
2022/09/09 12:59:39;;;;;;;;;;;24.90;75.00;;;;;;4917006;29;20278;-66
2022/09/09 13:02:19;;;;;;;;;;;24.90;75.70;;;;;;4916722;29;20283;-66
2022/09/09 13:04:46;;;;;;;;;;;24.80;75.10;;;;;;4916671;29;19961;-67
2022/09/09 13:07:13;;;;;;;;;;;24.90;76.00;;;;;;4917131;29;20002;-66
2022/09/09 13:09:39;;;;;;;;;;;24.90;74.60;;;;;;4915897;29;20592;-67
2022/09/09 13:12:07;;;;;;;;;;;24.90;75.30;;;;;;4916430;29;19916;-67
2022/09/09 13:14:34;;;;;;;;;;;24.80;74.70;;;;;;4916577;29;20423;-64
2022/09/09 13:17:01;;;;;;;;;;;24.90;75.20;;;;;;4916203;29;20379;-68
2022/09/09 13:19:29;;;;;;;;;;;24.90;73.40;;;;;;4916232;29;19922;-65
2022/09/09 13:21:55;;;;;;;;;;;24.90;74.10;;;;;;4916363;29;19958;-64
2022/09/09 13:24:24;;;;;;;;;;;25.00;74.10;;;;;;4905158;29;19959;-65
2022/09/09 13:27:24;;;;;;;;;;;24.90;74.10;;;;;;4917182;29;19915;-67
2022/09/09 13:29:56;;;;;;;;;;;24.80;73.80;;;;;;4917138;29;19912;-65
2022/09/09 13:32:23;;;;;;;;;;;24.80;74.20;;;;;;4917256;29;19962;-65
2022/09/09 13:34:52;;;;;;;;;;;24.90;75.10;;;;;;4917063;29;19915;-64
2022/09/09 13:37:22;;;;;;;;;;;24.80;75.00;;;;;;4916972;29;19930;-65
2022/09/09 13:39:52;;;;;;;;;;;24.60;76.10;;;;;;4916827;29;19938;-65
2022/09/09 13:42:29;;;;;;;;;;;24.60;77.00;;;;;;4916540;29;20451;-65
2022/09/09 13:44:55;;;;;;;;;;;24.50;76.60;;;;;;4915881;29;19978;-66
2022/09/09 13:47:26;;;;;;;;;;;24.50;76.90;;;;;;4915908;29;20444;-67
2022/09/09 13:49:52;;;;;;;;;;;24.50;77.20;;;;;;4915356;29;19930;-65
2022/09/09 13:52:18;;;;;;;;;;;24.70;77.30;;;;;;4908506;29;19916;-65
2022/09/09 13:54:50;;;;;;;;;;;24.80;77.50;;;;;;4915892;29;19911;-66
2022/09/09 13:57:24;;;;;;;;;;;24.90;76.70;;;;;;4915688;29;20380;-65
2022/09/09 13:59:49;;;;;;;;;;;24.80;75.90;;;;;;4915666;29;19912;-65
2022/09/09 14:02:16;;;;;;;;;;;24.80;75.40;;;;;;4915770;29;19911;-65
2022/09/09 14:04:42;;;;;;;;;;;24.70;76.10;;;;;;4915560;29;19918;-64
2022/09/09 14:07:17;;;;;;;;;;;24.60;76.60;;;;;;4916263;29;19913;-65
2022/09/09 14:09:43;;;;;;;;;;;24.70;77.00;;;;;;4916368;29;19983;-65
2022/09/09 14:12:13;;;;;;;;;;;24.70;76.60;;;;;;4916385;29;19915;-65
2022/09/09 14:14:39;;;;;;;;;;;24.80;76.40;;;;;;4916625;29;19994;-72
2022/09/09 14:17:04;;;;;;;;;;;24.80;76.60;;;;;;4916303;29;20041;-69
2022/09/09 14:19:33;;;;;;;;;;;24.90;75.90;;;;;;4916320;29;19939;-67
2022/09/09 14:21:59;;;;;;;;;;;24.90;76.60;;;;;;4916315;29;20359;-68
2022/09/09 14:24:25;;;;;;;;;;;25.00;76.50;;;;;;4906312;29;19915;-67
2022/09/09 14:26:50;;;;;;;;;;;25.00;73.30;;;;;;4916082;29;19958;-66
2022/09/09 14:29:16;;;;;;;;;;;25.10;74.40;;;;;;4915503;29;19921;-66